Osvaldo Cruz, Brazil
Current Conditions -  °F | °C
As of 4:00 PM on Saturday 20 Dec 2014 (Local Time) from SBDN Reporting Station
Scattered Clouds Scattered Clouds  
Wind Chill: 91°   Ceiling: Unl
Heat Index: 97°   Visibility: 6mi
Dew Point: 70°   Wind: 8mph
Humidity: 49%   Direction: 350°N
Pressure: 29.74"   Gusts: NA
Location:  21.8°S, 50.88°W
Report Text: SBDN 201800Z 35007KT 9999 SCT040 33/21 Q1007
Loading
Personal Weather Stations






























Interactive Weather Map New forecast layout! Learn more

10-Day Weather Forecast

Advertisements
Track Severe Weather on mobile